createdAt,value
2023-04-13T00:00:26.067Z,12.20
2023-04-13T00:02:54.511Z,12.11
2023-04-13T00:05:22.706Z,12.18
2023-04-13T00:07:49.873Z,12.24
2023-04-13T00:10:19.065Z,12.22
2023-04-13T00:12:49.143Z,12.15
2023-04-13T00:15:17.422Z,12.15
2023-04-13T00:17:45.458Z,12.11
2023-04-13T00:20:15.237Z,12.24
2023-04-13T00:22:43.192Z,12.09
2023-04-13T00:25:11.743Z,12.11
2023-04-13T00:27:39.346Z,12.19
2023-04-13T00:30:10.227Z,12.20
2023-04-13T00:32:38.710Z,12.19
2023-04-13T00:35:06.143Z,12.25
2023-04-13T00:37:33.232Z,12.20
2023-04-13T00:40:00.277Z,12.14
2023-04-13T00:42:28.153Z,12.15
2023-04-13T00:44:55.359Z,12.23
2023-04-13T00:47:28.038Z,12.19
2023-04-13T00:49:55.868Z,12.16
2023-04-13T00:52:23.143Z,12.28
2023-04-13T00:54:51.623Z,12.32
2023-04-13T00:57:19.176Z,12.32
2023-04-13T00:59:49.438Z,12.24
2023-04-13T01:02:16.946Z,12.32
2023-04-13T01:04:45.765Z,12.24
2023-04-13T01:07:12.954Z,12.19
2023-04-13T01:09:42.324Z,12.26
2023-04-13T01:12:28.218Z,12.11
2023-04-13T01:14:58.821Z,12.05
2023-04-13T01:17:28.831Z,12.05
2023-04-13T01:20:22.213Z,12.07
2023-04-13T01:23:00.428Z,12.17
2023-04-13T01:25:27.494Z,12.28
2023-04-13T01:28:00.154Z,12.38
2023-04-13T01:30:31.506Z,12.19
2023-04-13T01:33:02.196Z,12.11
2023-04-13T01:35:30.954Z,12.01
2023-04-13T01:37:59.036Z,12.08
2023-04-13T01:40:28.341Z,12.04
2023-04-13T01:42:57.536Z,12.22
2023-04-13T01:45:36.180Z,12.21
2023-04-13T01:48:23.774Z,12.17
2023-04-13T01:51:16.537Z,12.13
2023-04-13T01:53:51.147Z,12.05
2023-04-13T01:56:19.691Z,12.06
2023-04-13T01:58:50.045Z,11.93
2023-04-13T02:01:18.074Z,11.77
2023-04-13T02:03:45.580Z,11.79
2023-04-13T02:06:12.931Z,11.82
2023-04-13T02:08:42.174Z,11.90
2023-04-13T02:11:10.206Z,11.86
2023-04-13T02:13:37.723Z,11.77
2023-04-13T02:16:09.378Z,11.72
2023-04-13T02:18:36.707Z,11.66
2023-04-13T02:21:08.409Z,11.72
2023-04-13T02:23:36.424Z,11.62
2023-04-13T02:26:04.590Z,11.54
2023-04-13T02:28:31.781Z,11.40
2023-04-13T02:31:03.658Z,11.33
2023-04-13T02:33:31.844Z,11.51
2023-04-13T02:36:01.207Z,11.60
2023-04-13T02:38:29.630Z,11.66
2023-04-13T02:41:03.271Z,11.75
2023-04-13T02:43:30.380Z,11.78
2023-04-13T02:45:58.062Z,11.82
2023-04-13T02:48:29.707Z,11.83
2023-04-13T02:50:57.213Z,11.85
2023-04-13T02:53:29.422Z,11.84
2023-04-13T02:56:02.264Z,11.86
2023-04-13T02:58:31.676Z,11.90
2023-04-13T03:01:02.497Z,11.86
2023-04-13T03:03:30.540Z,11.85
2023-04-13T03:05:58.754Z,11.80
2023-04-13T03:08:37.031Z,11.83
2023-04-13T03:11:18.400Z,11.73
2023-04-13T03:13:54.094Z,11.65
2023-04-13T03:16:21.170Z,11.71
2023-04-13T03:18:48.310Z,11.71
2023-04-13T03:21:15.961Z,11.77
2023-04-13T03:24:00.124Z,11.64
2023-04-13T03:26:27.479Z,11.53
2023-04-13T03:28:57.764Z,11.54
2023-04-13T03:31:26.426Z,11.55
2023-04-13T03:33:53.572Z,11.66
2023-04-13T03:36:21.096Z,11.66
2023-04-13T03:38:48.151Z,11.66
2023-04-13T03:41:15.843Z,11.68
2023-04-13T03:43:46.682Z,11.86
2023-04-13T03:46:13.868Z,11.85
2023-04-13T03:48:42.123Z,11.62
2023-04-13T03:51:11.848Z,11.64
2023-04-13T03:53:48.491Z,11.63
2023-04-13T03:56:18.726Z,11.48
2023-04-13T03:58:46.031Z,11.52
2023-04-13T04:01:16.617Z,11.48
2023-04-13T04:03:47.650Z,11.54
2023-04-13T04:06:14.973Z,11.40
2023-04-13T04:08:49.909Z,11.38
2023-04-13T04:11:35.076Z,11.18
2023-04-13T04:14:02.989Z,11.10
2023-04-13T04:16:30.830Z,11.16
2023-04-13T04:19:06.184Z,11.01
2023-04-13T04:21:36.999Z,11.00
2023-04-13T04:24:12.388Z,11.13
2023-04-13T04:26:49.752Z,11.15
2023-04-13T04:29:17.445Z,10.95
2023-04-13T04:31:44.648Z,10.88
2023-04-13T04:34:16.859Z,10.86
2023-04-13T04:36:45.558Z,10.84
2023-04-13T04:39:14.367Z,10.99
2023-04-13T04:41:54.186Z,11.00
2023-04-13T04:44:25.421Z,10.93
2023-04-13T04:46:54.178Z,10.90
2023-04-13T04:49:21.933Z,11.03
2023-04-13T04:51:49.709Z,10.99
2023-04-13T04:54:19.692Z,10.97
2023-04-13T04:56:48.165Z,10.91
2023-04-13T04:59:19.571Z,10.90
2023-04-13T05:01:56.653Z,10.93
2023-04-13T05:04:23.764Z,10.81
2023-04-13T05:06:51.074Z,10.82
2023-04-13T05:09:22.466Z,10.87
2023-04-13T05:11:53.961Z,10.87
2023-04-13T05:14:21.722Z,10.90
2023-04-13T05:16:48.972Z,10.78
2023-04-13T05:19:24.020Z,10.84
2023-04-13T05:21:53.759Z,10.83
2023-04-13T05:24:22.371Z,10.79
2023-04-13T05:26:50.887Z,10.83
2023-04-13T05:29:22.106Z,10.83
2023-04-13T05:31:49.843Z,10.83
2023-04-13T05:34:18.377Z,10.99
2023-04-13T05:37:01.463Z,10.81
2023-04-13T05:39:28.572Z,10.81
2023-04-13T05:41:56.248Z,10.85
2023-04-13T05:44:23.864Z,10.85
2023-04-13T05:46:52.673Z,10.87
2023-04-13T05:49:20.027Z,10.83
2023-04-13T05:51:48.268Z,10.93
2023-04-13T05:54:17.480Z,10.94
2023-04-13T05:56:48.521Z,10.92
2023-04-13T05:59:16.320Z,10.86
2023-04-13T06:01:44.711Z,10.79
2023-04-13T06:04:12.933Z,10.89
2023-04-13T06:06:40.916Z,11.07
2023-04-13T06:09:08.972Z,11.05
2023-04-13T06:11:36.704Z,11.02
2023-04-13T06:14:03.796Z,10.82
2023-04-13T06:16:30.999Z,10.80
2023-04-13T06:18:59.489Z,10.76
2023-04-13T06:21:28.701Z,10.88
2023-04-13T06:23:56.052Z,10.83
2023-04-13T06:26:33.877Z,10.80
2023-04-13T06:29:02.876Z,10.79
2023-04-13T06:31:37.071Z,10.96
2023-04-13T06:34:09.704Z,10.86
2023-04-13T06:36:40.623Z,10.84
2023-04-13T06:39:09.477Z,10.93
2023-04-13T06:41:37.955Z,10.92
2023-04-13T06:44:39.346Z,10.86
2023-04-13T06:47:06.466Z,10.79
2023-04-13T06:49:34.170Z,10.85
2023-04-13T06:52:02.317Z,10.95
2023-04-13T06:54:30.407Z,10.94
2023-04-13T06:57:03.830Z,10.86
2023-04-13T06:59:31.035Z,10.95
2023-04-13T07:01:58.248Z,11.02
2023-04-13T07:04:28.600Z,11.19
2023-04-13T07:06:57.092Z,11.27
2023-04-13T07:09:25.911Z,11.31
2023-04-13T07:11:53.370Z,11.28
2023-04-13T07:14:21.321Z,11.35
2023-04-13T07:16:48.741Z,11.47
2023-04-13T07:19:17.018Z,11.46
2023-04-13T07:21:44.255Z,11.45
2023-04-13T07:24:11.424Z,11.65
2023-04-13T07:26:42.492Z,11.52
2023-04-13T07:29:13.586Z,11.56
2023-04-13T07:31:44.822Z,11.51
2023-04-13T07:34:12.243Z,11.49
2023-04-13T07:36:44.107Z,11.59
2023-04-13T07:39:15.059Z,11.68
2023-04-13T07:41:47.341Z,11.82
2023-04-13T07:44:19.134Z,11.70
2023-04-13T07:46:46.594Z,11.90
2023-04-13T07:49:13.690Z,11.79
2023-04-13T07:51:42.590Z,11.73
2023-04-13T07:54:09.920Z,11.87
2023-04-13T07:56:37.373Z,11.92
2023-04-13T07:59:06.451Z,12.14
2023-04-13T08:01:35.058Z,12.25
2023-04-13T08:04:03.472Z,12.29
2023-04-13T08:06:32.179Z,12.21
2023-04-13T08:09:01.595Z,12.12
2023-04-13T08:11:28.719Z,12.12
2023-04-13T08:14:02.617Z,12.15
2023-04-13T08:16:34.209Z,12.21
2023-04-13T08:19:03.970Z,12.11
2023-04-13T08:21:37.417Z,12.19
2023-04-13T08:24:04.984Z,12.19
2023-04-13T08:26:32.110Z,12.15
2023-04-13T08:29:01.678Z,12.12
2023-04-13T08:31:29.829Z,11.97
2023-04-13T08:34:01.579Z,11.90
2023-04-13T08:36:31.782Z,11.77
2023-04-13T08:39:05.935Z,11.66
2023-04-13T08:41:38.903Z,11.54
2023-04-13T08:44:08.621Z,11.69
2023-04-13T08:46:41.107Z,11.73
2023-04-13T08:49:09.594Z,11.82
2023-04-13T08:51:52.445Z,11.67
2023-04-13T08:54:20.291Z,11.61
2023-04-13T08:56:47.859Z,11.68
2023-04-13T08:59:21.469Z,11.54
2023-04-13T09:01:49.927Z,11.57
2023-04-13T09:04:20.750Z,11.54
2023-04-13T09:06:51.810Z,11.47
2023-04-13T09:09:21.292Z,11.51
2023-04-13T09:11:50.850Z,11.58
2023-04-13T09:14:22.114Z,11.59
2023-04-13T09:16:50.171Z,11.56
2023-04-13T09:19:31.686Z,11.61
2023-04-13T09:21:59.171Z,11.67
2023-04-13T09:24:27.324Z,11.87
2023-04-13T09:26:54.379Z,12.00
2023-04-13T09:29:24.384Z,11.85
2023-04-13T09:31:51.430Z,12.13
2023-04-13T09:34:28.332Z,12.29
2023-04-13T09:36:56.795Z,12.24
2023-04-13T09:39:28.120Z,12.31
2023-04-13T09:41:55.780Z,12.51
2023-04-13T09:44:34.581Z,12.55
2023-04-13T09:47:03.034Z,13.07
2023-04-13T09:49:41.643Z,13.81
2023-04-13T09:52:20.785Z,14.11
2023-04-13T09:54:55.014Z,15.07
2023-04-13T09:57:28.928Z,14.85
2023-04-13T09:59:57.805Z,15.49
2023-04-13T10:02:25.970Z,16.09
2023-04-13T10:04:54.145Z,15.18
2023-04-13T10:07:22.799Z,14.45
2023-04-13T10:09:51.161Z,14.28
2023-04-13T10:12:18.217Z,13.89
2023-04-13T10:14:48.425Z,14.27
2023-04-13T10:17:25.754Z,14.72
2023-04-13T10:19:53.642Z,16.36
2023-04-13T10:22:22.883Z,16.00
2023-04-13T10:24:51.161Z,15.02
2023-04-13T10:27:21.627Z,14.55
2023-04-13T10:29:50.051Z,14.67
2023-04-13T10:32:21.161Z,14.64
2023-04-13T10:34:48.984Z,14.57
2023-04-13T10:37:19.327Z,14.48
2023-04-13T10:39:46.884Z,14.37
2023-04-13T10:42:16.005Z,14.33
2023-04-13T10:44:48.173Z,14.39
2023-04-13T10:47:16.418Z,14.44
2023-04-13T10:49:44.201Z,14.59
2023-04-13T10:52:11.614Z,14.66
2023-04-13T10:54:39.650Z,14.20
2023-04-13T10:57:09.096Z,14.33
2023-04-13T10:59:57.798Z,14.33
2023-04-13T11:02:26.618Z,14.38
2023-04-13T11:04:54.151Z,14.49
2023-04-13T11:07:23.343Z,14.70
2023-04-13T11:09:53.485Z,14.75
2023-04-13T11:12:20.744Z,14.67
2023-04-13T11:14:48.207Z,14.72
2023-04-13T11:17:16.775Z,14.59
2023-04-13T11:19:49.821Z,14.63
2023-04-13T11:22:18.641Z,14.86
2023-04-13T11:24:46.305Z,15.00
2023-04-13T11:27:27.026Z,15.15
2023-04-13T11:30:00.960Z,15.36
2023-04-13T11:32:28.225Z,15.40
2023-04-13T11:35:15.692Z,15.41
2023-04-13T11:37:44.299Z,15.11
2023-04-13T11:40:17.563Z,15.11
2023-04-13T11:42:46.609Z,14.83
2023-04-13T11:45:21.160Z,14.65
2023-04-13T11:47:52.420Z,14.63
2023-04-13T11:50:20.517Z,14.70
2023-04-13T11:52:49.018Z,14.67
2023-04-13T11:55:23.166Z,14.52
2023-04-13T11:57:52.183Z,14.30
2023-04-13T12:00:24.488Z,14.27
2023-04-13T12:03:01.989Z,13.85
2023-04-13T12:05:32.407Z,13.70
2023-04-13T12:08:02.615Z,13.51
2023-04-13T12:10:39.197Z,13.39
2023-04-13T12:16:01.502Z,13.59
2023-04-13T12:18:39.989Z,13.73
2023-04-13T12:21:07.751Z,13.84
2023-04-13T12:23:35.009Z,14.00
2023-04-13T12:26:32.151Z,14.10
2023-04-13T12:28:59.353Z,14.09
2023-04-13T12:31:32.386Z,13.56
2023-04-13T12:33:59.694Z,13.77
2023-04-13T12:36:31.511Z,13.78
2023-04-13T12:38:59.480Z,13.86
2023-04-13T12:41:26.986Z,14.04
2023-04-13T12:43:54.364Z,14.19
2023-04-13T12:46:22.052Z,14.37
2023-04-13T12:48:49.224Z,14.52
2023-04-13T12:51:16.266Z,14.68
2023-04-13T12:53:43.346Z,14.95
2023-04-13T12:56:11.019Z,15.10
2023-04-13T12:58:38.360Z,15.21
2023-04-13T13:01:05.591Z,15.40
2023-04-13T13:03:32.755Z,15.46
2023-04-13T13:05:59.874Z,15.52
2023-04-13T13:08:27.113Z,15.61
2023-04-13T13:10:54.248Z,15.59
2023-04-13T13:13:21.332Z,15.18
2023-04-13T13:15:48.444Z,15.17
2023-04-13T13:18:15.578Z,15.11
2023-04-13T13:20:42.675Z,15.14
2023-04-13T13:23:10.819Z,15.06
2023-04-13T13:25:39.700Z,15.07
2023-04-13T13:28:13.815Z,15.02
2023-04-13T13:30:41.493Z,14.65
2023-04-13T13:33:08.595Z,14.87
2023-04-13T13:35:35.869Z,14.75
2023-04-13T13:38:03.373Z,14.49
2023-04-13T13:40:30.505Z,14.46
2023-04-13T13:42:57.688Z,14.27
2023-04-13T13:45:24.833Z,13.98
2023-04-13T13:47:54.805Z,13.64
2023-04-13T13:50:30.897Z,13.67
2023-04-13T13:53:04.243Z,13.57
2023-04-13T13:55:37.705Z,13.69
2023-04-13T13:58:04.826Z,13.63
2023-04-13T14:00:32.211Z,13.60
2023-04-13T14:03:00.769Z,13.56
2023-04-13T14:05:28.070Z,13.63
2023-04-13T14:07:55.190Z,13.71
2023-04-13T14:10:22.343Z,13.58
2023-04-13T14:12:50.767Z,13.49
2023-04-13T14:15:18.859Z,13.67
2023-04-13T14:17:55.536Z,13.79
2023-04-13T14:20:34.097Z,13.65
2023-04-13T14:23:01.275Z,13.31
2023-04-13T14:25:28.372Z,13.41
2023-04-13T14:27:55.444Z,13.49
2023-04-13T14:30:23.671Z,13.48
2023-04-13T14:32:51.958Z,13.51
2023-04-13T14:35:20.059Z,13.53
2023-04-13T14:37:47.562Z,13.57
2023-04-13T14:40:17.126Z,13.72
2023-04-13T14:42:45.557Z,13.68
2023-04-13T14:45:12.766Z,13.82
2023-04-13T14:47:40.229Z,13.92
2023-04-13T14:50:08.399Z,13.84
2023-04-13T14:52:35.778Z,13.63
2023-04-13T14:55:05.011Z,13.38
2023-04-13T14:57:33.304Z,13.19
2023-04-13T15:00:00.481Z,13.18
2023-04-13T15:02:31.303Z,12.96
2023-04-13T15:04:58.542Z,13.16
2023-04-13T15:07:29.137Z,13.16
2023-04-13T15:09:56.187Z,13.11
2023-04-13T15:12:23.643Z,12.90
2023-04-13T15:14:51.099Z,12.99
2023-04-13T15:17:18.194Z,13.02
2023-04-13T15:19:45.286Z,13.20
2023-04-13T15:22:12.662Z,13.00
2023-04-13T15:24:39.794Z,13.18
2023-04-13T15:27:06.873Z,13.40
2023-04-13T15:29:33.962Z,13.21
2023-04-13T15:32:01.560Z,13.32
2023-04-13T15:34:28.765Z,13.33
2023-04-13T15:36:57.062Z,13.39
2023-04-13T15:39:24.271Z,13.36
2023-04-13T15:41:54.184Z,13.55
2023-04-13T15:44:21.388Z,13.45
2023-04-13T15:46:48.518Z,13.63
2023-04-13T15:49:15.658Z,13.58
2023-04-13T15:51:42.715Z,13.53
2023-04-13T15:54:09.787Z,13.69
2023-04-13T15:56:36.796Z,13.61
2023-04-13T15:59:03.848Z,13.51
2023-04-13T16:01:43.580Z,13.43
2023-04-13T16:04:11.413Z,13.35
2023-04-13T16:06:38.627Z,13.19
2023-04-13T16:09:05.838Z,13.15
2023-04-13T16:11:32.858Z,13.20
2023-04-13T16:14:07.150Z,13.27
2023-04-13T16:16:44.472Z,13.04
2023-04-13T16:19:12.285Z,12.33
2023-04-13T16:21:45.396Z,12.27
2023-04-13T16:24:17.110Z,12.32
2023-04-13T16:26:45.040Z,12.15
2023-04-13T16:29:12.175Z,12.24
2023-04-13T16:31:39.459Z,12.29
2023-04-13T16:34:22.224Z,11.81
2023-04-13T16:36:52.722Z,11.32
2023-04-13T16:39:20.997Z,11.17
2023-04-13T16:41:48.062Z,10.91
2023-04-13T16:44:15.556Z,11.24
2023-04-13T16:46:42.782Z,11.08
2023-04-13T16:49:10.320Z,11.02
2023-04-13T16:51:37.460Z,10.70
2023-04-13T16:54:06.431Z,10.76
2023-04-13T16:56:33.463Z,10.77
2023-04-13T16:59:01.383Z,10.69
2023-04-13T17:01:29.042Z,10.68
2023-04-13T17:03:56.669Z,10.64
2023-04-13T17:06:23.906Z,10.50
2023-04-13T17:08:51.003Z,10.41
2023-04-13T17:11:18.170Z,10.46
2023-04-13T17:13:46.327Z,10.44
2023-04-13T17:16:13.460Z,10.04
2023-04-13T17:18:40.790Z,10.01
2023-04-13T17:21:07.960Z,10.15
2023-04-13T17:23:35.038Z,10.04
2023-04-13T17:26:03.609Z,10.03
2023-04-13T17:28:30.866Z,10.10
2023-04-13T17:30:57.995Z,10.13
2023-04-13T17:33:27.920Z,10.21
2023-04-13T17:35:55.365Z,10.10
2023-04-13T17:38:22.696Z,10.08
2023-04-13T17:40:50.958Z,10.11
2023-04-13T17:43:18.243Z,9.98
2023-04-13T17:45:45.344Z,9.82
2023-04-13T17:48:12.528Z,9.70
2023-04-13T17:50:39.608Z,9.84
2023-04-13T17:53:06.705Z,9.70
2023-04-13T17:55:35.823Z,9.68
2023-04-13T17:58:02.842Z,9.65
2023-04-13T18:00:29.866Z,9.56
2023-04-13T18:02:57.863Z,9.45
2023-04-13T18:05:25.800Z,9.48
2023-04-13T18:07:52.895Z,9.57
2023-04-13T18:10:20.031Z,9.58
2023-04-13T18:13:05.883Z,9.64
2023-04-13T18:15:32.941Z,9.59
2023-04-13T18:18:00.081Z,9.49
2023-04-13T18:20:27.247Z,9.54
2023-04-13T18:22:54.281Z,9.51
2023-04-13T18:25:21.413Z,9.33
2023-04-13T18:27:48.689Z,9.39
2023-04-13T18:30:15.853Z,9.41
2023-04-13T18:32:42.960Z,9.41
2023-04-13T18:35:12.334Z,9.20
2023-04-13T18:37:39.424Z,9.20
2023-04-13T18:40:07.170Z,9.19
2023-04-13T18:42:34.310Z,9.19
2023-04-13T18:45:01.440Z,8.98
2023-04-13T18:47:28.632Z,9.03
2023-04-13T18:49:56.976Z,9.02
2023-04-13T18:52:25.908Z,9.08
2023-04-13T18:54:55.808Z,9.07
2023-04-13T18:57:22.994Z,9.03
2023-04-13T18:59:50.260Z,8.90
2023-04-13T19:02:17.430Z,8.89
2023-04-13T19:04:44.740Z,8.94
2023-04-13T19:07:11.817Z,8.86
2023-04-13T19:09:39.069Z,8.92
2023-04-13T19:12:06.924Z,9.16
2023-04-13T19:14:34.027Z,9.17
2023-04-13T19:17:01.188Z,8.98
2023-04-13T19:19:28.938Z,8.99
2023-04-13T19:21:56.057Z,8.81
2023-04-13T19:24:23.237Z,8.75
2023-04-13T19:26:50.445Z,8.68
2023-04-13T19:29:17.651Z,8.64
2023-04-13T19:31:45.336Z,8.65
2023-04-13T19:34:13.182Z,8.62
2023-04-13T19:36:40.830Z,8.51
2023-04-13T19:39:08.513Z,8.57
2023-04-13T19:41:37.325Z,8.36
2023-04-13T19:44:05.432Z,8.23
2023-04-13T19:46:32.863Z,8.14
2023-04-13T19:49:01.867Z,8.13
2023-04-13T19:51:29.690Z,8.47
2023-04-13T19:53:57.798Z,8.50
2023-04-13T19:56:25.192Z,8.41
2023-04-13T19:58:52.270Z,8.31
2023-04-13T20:01:21.113Z,8.37
2023-04-13T20:03:48.598Z,8.38
2023-04-13T20:06:16.058Z,8.43
2023-04-13T20:08:44.511Z,8.36
2023-04-13T20:11:11.919Z,8.42
2023-04-13T20:13:39.610Z,8.38
2023-04-13T20:16:07.281Z,8.55
2023-04-13T20:18:34.375Z,8.64
2023-04-13T20:21:01.513Z,8.60
2023-04-13T20:23:29.849Z,8.73
2023-04-13T20:25:57.374Z,8.90
2023-04-13T20:28:24.448Z,8.96
2023-04-13T20:30:52.004Z,8.99
2023-04-13T20:33:19.153Z,9.01
2023-04-13T20:35:46.219Z,8.90
2023-04-13T20:38:13.992Z,8.86
2023-04-13T20:40:41.904Z,8.91
2023-04-13T20:43:09.645Z,8.78
2023-04-13T20:45:36.744Z,8.88
2023-04-13T20:48:48.468Z,8.71
2023-04-13T20:50:53.824Z,8.79
2023-04-13T20:53:21.030Z,8.82
2023-04-13T20:55:48.914Z,8.91
2023-04-13T20:58:16.104Z,8.92
2023-04-13T21:00:44.816Z,8.89
2023-04-13T21:03:12.397Z,8.88
2023-04-13T21:05:40.610Z,8.84
2023-04-13T21:08:07.728Z,8.90
2023-04-13T21:10:34.856Z,8.76
2023-04-13T21:13:01.969Z,8.87
2023-04-13T21:15:29.543Z,8.95
2023-04-13T21:17:56.690Z,9.05
2023-04-13T21:20:24.055Z,9.04
2023-04-13T21:22:51.113Z,8.98
2023-04-13T21:25:18.209Z,9.05
2023-04-13T21:27:45.340Z,9.22
2023-04-13T21:30:12.493Z,9.29
2023-04-13T21:32:39.607Z,9.16
2023-04-13T21:35:07.095Z,9.05
2023-04-13T21:37:34.257Z,9.08
2023-04-13T21:40:01.459Z,9.12
2023-04-13T21:42:28.501Z,8.94
2023-04-13T21:44:56.947Z,9.02
2023-04-13T21:47:24.162Z,8.98
2023-04-13T21:49:51.428Z,8.90
2023-04-13T21:52:18.564Z,8.94
2023-04-13T21:54:45.691Z,8.95
2023-04-13T21:57:13.072Z,8.87
2023-04-13T21:59:40.543Z,8.90
2023-04-13T22:02:07.718Z,8.89
2023-04-13T22:04:34.935Z,8.87
2023-04-13T22:07:01.983Z,9.03
2023-04-13T22:09:29.087Z,9.00
2023-04-13T22:11:56.172Z,8.89
2023-04-13T22:14:25.852Z,8.82
2023-04-13T22:16:54.002Z,8.82
2023-04-13T22:19:21.125Z,8.72
2023-04-13T22:21:48.269Z,8.70
2023-04-13T22:24:16.090Z,8.82
2023-04-13T22:26:43.220Z,8.82
2023-04-13T22:29:10.550Z,8.77
2023-04-13T22:31:37.716Z,8.73
2023-04-13T22:34:04.800Z,8.67
2023-04-13T22:36:32.113Z,8.71
2023-04-13T22:38:59.283Z,8.64
2023-04-13T22:41:26.575Z,8.64
2023-04-13T22:43:53.620Z,8.64
2023-04-13T22:46:20.909Z,8.70
2023-04-13T22:48:48.322Z,8.71
2023-04-13T22:51:15.552Z,8.53
2023-04-13T22:53:42.591Z,8.61
2023-04-13T22:56:09.778Z,8.61
2023-04-13T22:58:36.871Z,8.64
2023-04-13T23:01:04.604Z,8.57
2023-04-13T23:03:31.846Z,8.54
2023-04-13T23:05:59.106Z,8.44
2023-04-13T23:08:26.341Z,8.44
2023-04-13T23:10:53.546Z,8.47
2023-04-13T23:13:20.820Z,8.47
2023-04-13T23:15:47.890Z,8.25
2023-04-13T23:18:14.984Z,8.29
2023-04-13T23:20:42.079Z,8.30
2023-04-13T23:23:09.201Z,8.32
2023-04-13T23:25:36.404Z,8.31
2023-04-13T23:28:03.452Z,8.30
2023-04-13T23:30:30.582Z,8.37
2023-04-13T23:32:57.783Z,8.52
2023-04-13T23:35:24.886Z,8.66
2023-04-13T23:37:52.149Z,8.69
2023-04-13T23:40:19.330Z,8.65
2023-04-13T23:42:46.368Z,8.69
2023-04-13T23:45:13.392Z,8.74
2023-04-13T23:47:40.674Z,8.81
2023-04-13T23:50:07.962Z,8.79
2023-04-13T23:52:35.009Z,8.96
2023-04-13T23:55:02.079Z,8.92
2023-04-13T23:57:33.272Z,8.74
